sensor_id;sensor_type;location;lat;lon;timestamp;temperature;humidity
2489;DHT22;1255;48.716;9.124;2023-09-08T03:32:53;14.30;99.90
2489;DHT22;1255;48.716;9.124;2023-09-08T03:35:20;14.30;99.90
2489;DHT22;1255;48.716;9.124;2023-09-08T03:37:47;14.30;99.90
2489;DHT22;1255;48.716;9.124;2023-09-08T03:40:15;14.20;99.90
2489;DHT22;1255;48.716;9.124;2023-09-08T03:42:41;14.20;99.90
2489;DHT22;1255;48.716;9.124;2023-09-08T03:45:08;14.20;99.90
2489;DHT22;1255;48.716;9.124;2023-09-08T03:47:35;14.20;99.90
2489;DHT22;1255;48.716;9.124;2023-09-08T03:50:03;14.20;99.90
2489;DHT22;1255;48.716;9.124;2023-09-08T03:52:31;14.20;99.90
2489;DHT22;1255;48.716;9.124;2023-09-08T03:54:58;14.20;99.90
2489;DHT22;1255;48.716;9.124;2023-09-08T03:57:24;14.20;99.90
2489;DHT22;1255;48.716;9.124;2023-09-08T03:59:51;14.20;99.90
2489;DHT22;1255;48.716;9.124;2023-09-08T04:02:18;14.30;99.90
2489;DHT22;1255;48.716;9.124;2023-09-08T04:04:45;14.20;99.90
2489;DHT22;1255;48.716;9.124;2023-09-08T04:07:13;14.30;99.90
2489;DHT22;1255;48.716;9.124;2023-09-08T04:09:39;14.20;99.90
2489;DHT22;1255;48.716;9.124;2023-09-08T04:12:06;14.20;99.90
2489;DHT22;1255;48.716;9.124;2023-09-08T04:14:34;14.10;99.90
2489;DHT22;1255;48.716;9.124;2023-09-08T04:17:01;14.10;99.90
2489;DHT22;1255;48.716;9.124;2023-09-08T04:19:28;14.10;99.90
2489;DHT22;1255;48.716;9.124;2023-09-08T04:21:55;14.00;99.90
2489;DHT22;1255;48.716;9.124;2023-09-08T04:24:23;14.10;99.90
2489;DHT22;1255;48.716;9.124;2023-09-08T04:26:50;14.10;99.90
2489;DHT22;1255;48.716;9.124;2023-09-08T04:29:16;14.00;99.90
2489;DHT22;1255;48.716;9.124;2023-09-08T04:31:43;14.00;99.90
2489;DHT22;1255;48.716;9.124;2023-09-08T04:34:10;14.00;99.90
2489;DHT22;1255;48.716;9.124;2023-09-08T04:36:37;14.00;99.90
2489;DHT22;1255;48.716;9.124;2023-09-08T04:39:03;14.00;99.90
2489;DHT22;1255;48.716;9.124;2023-09-08T04:41:31;13.90;99.90
2489;DHT22;1255;48.716;9.124;2023-09-08T04:43:58;13.90;99.90
2489;DHT22;1255;48.716;9.124;2023-09-08T04:46:25;13.90;99.90
2489;DHT22;1255;48.716;9.124;2023-09-08T04:48:52;13.90;99.90
2489;DHT22;1255;48.716;9.124;2023-09-08T04:51:18;13.90;99.90
2489;DHT22;1255;48.716;9.124;2023-09-08T04:53:45;13.90;99.90
2489;DHT22;1255;48.716;9.124;2023-09-08T04:56:13;13.80;99.90
2489;DHT22;1255;48.716;9.124;2023-09-08T04:58:41;13.80;99.90
2489;DHT22;1255;48.716;9.124;2023-09-08T05:01:07;13.80;99.90
2489;DHT22;1255;48.716;9.124;2023-09-08T05:03:34;13.80;99.90
2489;DHT22;1255;48.716;9.124;2023-09-08T05:06:01;13.80;99.90
2489;DHT22;1255;48.716;9.124;2023-09-08T05:08:27;13.90;99.90
2489;DHT22;1255;48.716;9.124;2023-09-08T05:10:54;13.90;99.90
2489;DHT22;1255;48.716;9.124;2023-09-08T05:13:21;13.90;99.90
2489;DHT22;1255;48.716;9.124;2023-09-08T05:15:53;13.90;99.90
2489;DHT22;1255;48.716;9.124;2023-09-08T05:18:25;14.00;99.90
2489;DHT22;1255;48.716;9.124;2023-09-08T05:20:52;14.00;99.90
2489;DHT22;1255;48.716;9.124;2023-09-08T05:23:19;13.90;99.90
2489;DHT22;1255;48.716;9.124;2023-09-08T05:25:46;14.00;99.90
2489;DHT22;1255;48.716;9.124;2023-09-08T05:28:12;14.00;99.90
2489;DHT22;1255;48.716;9.124;2023-09-08T05:30:39;14.00;99.90
2489;DHT22;1255;48.716;9.124;2023-09-08T05:33:07;14.00;99.90
2489;DHT22;1255;48.716;9.124;2023-09-08T05:35:34;14.10;99.90
2489;DHT22;1255;48.716;9.124;2023-09-08T05:38:01;14.20;99.90
2489;DHT22;1255;48.716;9.124;2023-09-08T05:40:28;14.30;99.90
2489;DHT22;1255;48.716;9.124;2023-09-08T05:42:55;14.40;99.90
2489;DHT22;1255;48.716;9.124;2023-09-08T05:45:21;14.50;99.90
2489;DHT22;1255;48.716;9.124;2023-09-08T05:47:51;14.60;99.90
2489;DHT22;1255;48.716;9.124;2023-09-08T05:50:19;14.70;99.90
2489;DHT22;1255;48.716;9.124;2023-09-08T05:52:46;14.70;99.90
2489;DHT22;1255;48.716;9.124;2023-09-08T05:55:12;14.80;99.90
2489;DHT22;1255;48.716;9.124;2023-09-08T05:57:39;14.90;99.90
2489;DHT22;1255;48.716;9.124;2023-09-08T06:00:07;14.90;99.90
2489;DHT22;1255;48.716;9.124;2023-09-08T06:02:34;15.00;99.90
2489;DHT22;1255;48.716;9.124;2023-09-08T06:05:01;15.10;99.90
2489;DHT22;1255;48.716;9.124;2023-09-08T06:07:29;15.10;99.90
2489;DHT22;1255;48.716;9.124;2023-09-08T06:09:55;15.20;99.90
2489;DHT22;1255;48.716;9.124;2023-09-08T06:12:22;15.20;99.90
2489;DHT22;1255;48.716;9.124;2023-09-08T06:14:49;15.20;99.90
2489;DHT22;1255;48.716;9.124;2023-09-08T06:17:16;15.20;99.90
2489;DHT22;1255;48.716;9.124;2023-09-08T06:19:42;15.30;99.90
2489;DHT22;1255;48.716;9.124;2023-09-08T06:22:09;15.30;99.90
2489;DHT22;1255;48.716;9.124;2023-09-08T06:24:37;15.40;99.90
2489;DHT22;1255;48.716;9.124;2023-09-08T06:27:05;15.50;99.90
2489;DHT22;1255;48.716;9.124;2023-09-08T06:29:32;15.50;99.90
2489;DHT22;1255;48.716;9.124;2023-09-08T06:31:58;15.60;99.90
2489;DHT22;1255;48.716;9.124;2023-09-08T06:34:25;15.80;99.90
2489;DHT22;1255;48.716;9.124;2023-09-08T06:36:52;15.90;99.90
2489;DHT22;1255;48.716;9.124;2023-09-08T06:39:19;16.00;99.90
2489;DHT22;1255;48.716;9.124;2023-09-08T06:41:47;16.00;99.90
2489;DHT22;1255;48.716;9.124;2023-09-08T06:44:13;16.10;99.90
2489;DHT22;1255;48.716;9.124;2023-09-08T06:46:40;16.20;99.90
2489;DHT22;1255;48.716;9.124;2023-09-08T06:49:07;16.30;99.90
2489;DHT22;1255;48.716;9.124;2023-09-08T06:51:33;16.50;99.90
2489;DHT22;1255;48.716;9.124;2023-09-08T06:54:00;16.60;99.90
2489;DHT22;1255;48.716;9.124;2023-09-08T06:56:27;16.70;99.90
2489;DHT22;1255;48.716;9.124;2023-09-08T06:58:55;16.90;99.90
2489;DHT22;1255;48.716;9.124;2023-09-08T07:01:23;17.00;99.90
2489;DHT22;1255;48.716;9.124;2023-09-08T07:03:50;17.20;99.90
2489;DHT22;1255;48.716;9.124;2023-09-08T07:06:16;17.30;99.90
2489;DHT22;1255;48.716;9.124;2023-09-08T07:08:43;17.50;99.90
2489;DHT22;1255;48.716;9.124;2023-09-08T07:11:10;17.60;99.90
2489;DHT22;1255;48.716;9.124;2023-09-08T07:13:36;17.80;99.90
2489;DHT22;1255;48.716;9.124;2023-09-08T07:16:05;17.90;99.90
2489;DHT22;1255;48.716;9.124;2023-09-08T07:18:31;18.10;99.90
2489;DHT22;1255;48.716;9.124;2023-09-08T07:21:01;18.20;99.90
2489;DHT22;1255;48.716;9.124;2023-09-08T07:23:28;18.40;99.90
2489;DHT22;1255;48.716;9.124;2023-09-08T07:25:55;18.60;99.90
2489;DHT22;1255;48.716;9.124;2023-09-08T07:28:21;18.70;99.90
2489;DHT22;1255;48.716;9.124;2023-09-08T07:30:48;18.80;99.90
2489;DHT22;1255;48.716;9.124;2023-09-08T07:33:16;19.00;99.90
2489;DHT22;1255;48.716;9.124;2023-09-08T07:35:44;19.10;99.90
2489;DHT22;1255;48.716;9.124;2023-09-08T07:38:11;19.30;99.90
2489;DHT22;1255;48.716;9.124;2023-09-08T07:40:38;19.40;99.90
2489;DHT22;1255;48.716;9.124;2023-09-08T07:43:04;19.60;99.90
2489;DHT22;1255;48.716;9.124;2023-09-08T07:45:31;19.80;99.90
2489;DHT22;1255;48.716;9.124;2023-09-08T07:47:58;19.90;99.90
2489;DHT22;1255;48.716;9.124;2023-09-08T07:50:28;20.00;99.90
2489;DHT22;1255;48.716;9.124;2023-09-08T07:52:56;20.20;99.90
2489;DHT22;1255;48.716;9.124;2023-09-08T07:55:23;20.30;99.90
2489;DHT22;1255;48.716;9.124;2023-09-08T07:57:53;20.40;99.90
2489;DHT22;1255;48.716;9.124;2023-09-08T08:00:20;20.60;99.90
2489;DHT22;1255;48.716;9.124;2023-09-08T08:02:47;20.70;99.90
2489;DHT22;1255;48.716;9.124;2023-09-08T08:05:14;20.90;99.90
2489;DHT22;1255;48.716;9.124;2023-09-08T08:07:43;21.10;99.90
2489;DHT22;1255;48.716;9.124;2023-09-08T08:10:11;21.10;99.90
2489;DHT22;1255;48.716;9.124;2023-09-08T08:12:38;21.30;99.90
2489;DHT22;1255;48.716;9.124;2023-09-08T08:15:06;21.50;99.90
2489;DHT22;1255;48.716;9.124;2023-09-08T08:17:35;21.70;99.90
2489;DHT22;1255;48.716;9.124;2023-09-08T08:20:03;21.90;99.90
2489;DHT22;1255;48.716;9.124;2023-09-08T08:22:32;22.00;99.90
2489;DHT22;1255;48.716;9.124;2023-09-08T08:25:00;22.20;99.90
2489;DHT22;1255;48.716;9.124;2023-09-08T08:27:28;22.40;99.90
2489;DHT22;1255;48.716;9.124;2023-09-08T08:29:56;22.50;99.90
2489;DHT22;1255;48.716;9.124;2023-09-08T08:32:24;22.70;99.90
2489;DHT22;1255;48.716;9.124;2023-09-08T08:34:51;22.80;99.90
2489;DHT22;1255;48.716;9.124;2023-09-08T08:37:18;23.00;99.90
2489;DHT22;1255;48.716;9.124;2023-09-08T08:39:45;23.20;99.90
2489;DHT22;1255;48.716;9.124;2023-09-08T08:42:13;23.10;99.90
2489;DHT22;1255;48.716;9.124;2023-09-08T08:44:40;23.20;99.90
2489;DHT22;1255;48.716;9.124;2023-09-08T08:47:10;23.30;99.90
2489;DHT22;1255;48.716;9.124;2023-09-08T08:49:39;23.40;99.90
2489;DHT22;1255;48.716;9.124;2023-09-08T08:52:08;23.60;99.90
2489;DHT22;1255;48.716;9.124;2023-09-08T08:54:38;23.70;99.90
2489;DHT22;1255;48.716;9.124;2023-09-08T08:57:05;23.80;99.90
2489;DHT22;1255;48.716;9.124;2023-09-08T08:59:34;23.90;99.90
2489;DHT22;1255;48.716;9.124;2023-09-08T09:02:02;24.00;99.90
2489;DHT22;1255;48.716;9.124;2023-09-08T09:04:29;24.10;99.90
2489;DHT22;1255;48.716;9.124;2023-09-08T09:06:57;24.30;99.90
2489;DHT22;1255;48.716;9.124;2023-09-08T09:09:24;24.30;99.90
2489;DHT22;1255;48.716;9.124;2023-09-08T09:11:51;24.40;99.90
2489;DHT22;1255;48.716;9.124;2023-09-08T09:14:18;24.60;99.90
2489;DHT22;1255;48.716;9.124;2023-09-08T09:16:46;24.70;99.90
2489;DHT22;1255;48.716;9.124;2023-09-08T09:19:18;24.80;99.90
2489;DHT22;1255;48.716;9.124;2023-09-08T09:21:51;25.00;99.90
2489;DHT22;1255;48.716;9.124;2023-09-08T09:24:30;25.10;99.90
2489;DHT22;1255;48.716;9.124;2023-09-08T09:26:57;25.20;99.90
2489;DHT22;1255;48.716;9.124;2023-09-08T09:29:23;25.40;99.90
2489;DHT22;1255;48.716;9.124;2023-09-08T09:31:52;25.60;99.90
2489;DHT22;1255;48.716;9.124;2023-09-08T09:34:21;25.60;99.90
2489;DHT22;1255;48.716;9.124;2023-09-08T09:36:48;25.70;99.90
2489;DHT22;1255;48.716;9.124;2023-09-08T09:39:18;25.80;99.90
2489;DHT22;1255;48.716;9.124;2023-09-08T09:41:46;25.80;99.90
2489;DHT22;1255;48.716;9.124;2023-09-08T09:44:13;26.00;99.90
2489;DHT22;1255;48.716;9.124;2023-09-08T09:46:43;26.00;99.90
2489;DHT22;1255;48.716;9.124;2023-09-08T09:49:12;26.20;99.90
2489;DHT22;1255;48.716;9.124;2023-09-08T09:51:40;26.40;99.90
2489;DHT22;1255;48.716;9.124;2023-09-08T09:54:08;26.50;99.90
2489;DHT22;1255;48.716;9.124;2023-09-08T09:56:37;26.60;99.90
2489;DHT22;1255;48.716;9.124;2023-09-08T09:59:04;26.60;99.90
2489;DHT22;1255;48.716;9.124;2023-09-08T10:01:32;26.80;99.90
2489;DHT22;1255;48.716;9.124;2023-09-08T10:04:00;26.80;99.90
2489;DHT22;1255;48.716;9.124;2023-09-08T10:06:31;26.90;99.90
2489;DHT22;1255;48.716;9.124;2023-09-08T10:08:59;27.00;99.90
2489;DHT22;1255;48.716;9.124;2023-09-08T10:11:29;27.10;99.90
2489;DHT22;1255;48.716;9.124;2023-09-08T10:13:58;27.30;99.90
2489;DHT22;1255;48.716;9.124;2023-09-08T10:16:26;27.40;99.90
2489;DHT22;1255;48.716;9.124;2023-09-08T10:18:55;27.50;99.90
2489;DHT22;1255;48.716;9.124;2023-09-08T10:21:26;27.60;99.90
2489;DHT22;1255;48.716;9.124;2023-09-08T10:23:59;27.60;99.90
2489;DHT22;1255;48.716;9.124;2023-09-08T10:26:27;27.70;99.90
2489;DHT22;1255;48.716;9.124;2023-09-08T10:28:55;27.80;99.90
2489;DHT22;1255;48.716;9.124;2023-09-08T10:31:23;28.00;99.90
2489;DHT22;1255;48.716;9.124;2023-09-08T10:33:52;28.10;99.90
2489;DHT22;1255;48.716;9.124;2023-09-08T10:36:19;28.10;99.90
2489;DHT22;1255;48.716;9.124;2023-09-08T10:38:45;28.20;99.90
2489;DHT22;1255;48.716;9.124;2023-09-08T10:41:28;28.30;99.90
2489;DHT22;1255;48.716;9.124;2023-09-08T10:44:01;28.40;99.90
2489;DHT22;1255;48.716;9.124;2023-09-08T10:46:31;28.50;99.90
2489;DHT22;1255;48.716;9.124;2023-09-08T10:49:02;28.60;99.90
2489;DHT22;1255;48.716;9.124;2023-09-08T10:51:30;28.60;99.90
2489;DHT22;1255;48.716;9.124;2023-09-08T10:53:56;28.70;99.90
2489;DHT22;1255;48.716;9.124;2023-09-08T10:56:29;28.80;99.90
2489;DHT22;1255;48.716;9.124;2023-09-08T10:58:59;28.90;99.90
2489;DHT22;1255;48.716;9.124;2023-09-08T11:01:26;29.10;99.90
2489;DHT22;1255;48.716;9.124;2023-09-08T11:03:54;29.10;99.90
2489;DHT22;1255;48.716;9.124;2023-09-08T11:06:21;29.00;99.90
2489;DHT22;1255;48.716;9.124;2023-09-08T11:08:50;28.90;99.90
2489;DHT22;1255;48.716;9.124;2023-09-08T11:11:21;28.90;99.90
2489;DHT22;1255;48.716;9.124;2023-09-08T11:13:49;29.00;99.90
2489;DHT22;1255;48.716;9.124;2023-09-08T11:16:16;29.00;99.90
2489;DHT22;1255;48.716;9.124;2023-09-08T11:18:47;29.10;99.90
2489;DHT22;1255;48.716;9.124;2023-09-08T11:21:13;29.20;99.90
2489;DHT22;1255;48.716;9.124;2023-09-08T11:23:40;29.20;99.90
2489;DHT22;1255;48.716;9.124;2023-09-08T11:26:08;29.30;99.90
2489;DHT22;1255;48.716;9.124;2023-09-08T11:28:35;29.40;99.90
2489;DHT22;1255;48.716;9.124;2023-09-08T11:31:04;29.50;99.90
2489;DHT22;1255;48.716;9.124;2023-09-08T11:33:34;29.50;99.90
2489;DHT22;1255;48.716;9.124;2023-09-08T11:36:11;29.60;99.90
2489;DHT22;1255;48.716;9.124;2023-09-08T11:38:39;29.60;99.90
2489;DHT22;1255;48.716;9.124;2023-09-08T11:41:07;29.50;99.90
2489;DHT22;1255;48.716;9.124;2023-09-08T11:43:34;29.40;99.90
2489;DHT22;1255;48.716;9.124;2023-09-08T11:46:02;29.50;99.90
2489;DHT22;1255;48.716;9.124;2023-09-08T11:48:31;29.50;99.90
2489;DHT22;1255;48.716;9.124;2023-09-08T11:50:58;29.60;99.90
2489;DHT22;1255;48.716;9.124;2023-09-08T11:53:25;29.70;99.90
2489;DHT22;1255;48.716;9.124;2023-09-08T11:55:53;29.90;99.90
2489;DHT22;1255;48.716;9.124;2023-09-08T11:58:21;30.00;99.90
2489;DHT22;1255;48.716;9.124;2023-09-08T12:00:48;30.00;99.90
2489;DHT22;1255;48.716;9.124;2023-09-08T12:03:17;30.00;99.90
2489;DHT22;1255;48.716;9.124;2023-09-08T12:05:51;30.10;99.90
2489;DHT22;1255;48.716;9.124;2023-09-08T12:08:18;30.10;99.90
2489;DHT22;1255;48.716;9.124;2023-09-08T12:10:45;30.10;99.90
2489;DHT22;1255;48.716;9.124;2023-09-08T12:13:12;30.10;99.90
2489;DHT22;1255;48.716;9.124;2023-09-08T12:15:41;30.20;99.90
2489;DHT22;1255;48.716;9.124;2023-09-08T12:18:11;30.30;99.90
2489;DHT22;1255;48.716;9.124;2023-09-08T12:20:39;30.40;99.90
2489;DHT22;1255;48.716;9.124;2023-09-08T12:23:17;30.50;99.90
2489;DHT22;1255;48.716;9.124;2023-09-08T12:25:45;30.50;99.90
2489;DHT22;1255;48.716;9.124;2023-09-08T12:28:12;30.60;99.90
2489;DHT22;1255;48.716;9.124;2023-09-08T12:30:39;30.70;99.90
2489;DHT22;1255;48.716;9.124;2023-09-08T12:33:07;30.80;99.90
2489;DHT22;1255;48.716;9.124;2023-09-08T12:35:34;30.80;99.90
2489;DHT22;1255;48.716;9.124;2023-09-08T12:38:03;30.80;99.90
2489;DHT22;1255;48.716;9.124;2023-09-08T12:40:34;30.80;99.90
2489;DHT22;1255;48.716;9.124;2023-09-08T12:43:01;30.90;99.90
2489;DHT22;1255;48.716;9.124;2023-09-08T12:45:28;30.90;99.90
2489;DHT22;1255;48.716;9.124;2023-09-08T12:47:59;30.80;99.90
2489;DHT22;1255;48.716;9.124;2023-09-08T12:50:27;30.90;99.90
2489;DHT22;1255;48.716;9.124;2023-09-08T12:52:54;30.90;99.90
2489;DHT22;1255;48.716;9.124;2023-09-08T12:55:20;31.00;99.90
2489;DHT22;1255;48.716;9.124;2023-09-08T12:57:49;31.00;99.90
2489;DHT22;1255;48.716;9.124;2023-09-08T13:00:20;31.00;99.90
2489;DHT22;1255;48.716;9.124;2023-09-08T13:02:48;31.00;99.90
2489;DHT22;1255;48.716;9.124;2023-09-08T13:05:14;31.00;99.90
2489;DHT22;1255;48.716;9.124;2023-09-08T13:07:41;30.90;99.90
2489;DHT22;1255;48.716;9.124;2023-09-08T13:10:08;30.90;99.90
2489;DHT22;1255;48.716;9.124;2023-09-08T13:12:35;30.80;99.90
2489;DHT22;1255;48.716;9.124;2023-09-08T13:15:04;30.70;99.90
2489;DHT22;1255;48.716;9.124;2023-09-08T13:17:31;30.60;99.90
2489;DHT22;1255;48.716;9.124;2023-09-08T13:19:57;30.60;99.90
2489;DHT22;1255;48.716;9.124;2023-09-08T13:22:24;30.60;99.90
2489;DHT22;1255;48.716;9.124;2023-09-08T13:24:51;30.60;99.90
2489;DHT22;1255;48.716;9.124;2023-09-08T13:27:17;30.60;99.90
2489;DHT22;1255;48.716;9.124;2023-09-08T13:29:44;30.50;99.90
2489;DHT22;1255;48.716;9.124;2023-09-08T13:32:12;30.60;99.90
2489;DHT22;1255;48.716;9.124;2023-09-08T13:34:39;30.60;99.90
2489;DHT22;1255;48.716;9.124;2023-09-08T13:37:06;30.70;99.90
2489;DHT22;1255;48.716;9.124;2023-09-08T13:39:33;30.70;99.90
2489;DHT22;1255;48.716;9.124;2023-09-08T13:42:01;30.70;99.90
2489;DHT22;1255;48.716;9.124;2023-09-08T13:44:28;30.70;99.90
2489;DHT22;1255;48.716;9.124;2023-09-08T13:46:54;30.70;99.90
2489;DHT22;1255;48.716;9.124;2023-09-08T13:49:22;30.70;99.90
2489;DHT22;1255;48.716;9.124;2023-09-08T13:51:49;30.70;99.90
2489;DHT22;1255;48.716;9.124;2023-09-08T13:54:17;30.70;99.90
2489;DHT22;1255;48.716;9.124;2023-09-08T13:56:44;30.60;99.90
2489;DHT22;1255;48.716;9.124;2023-09-08T13:59:11;30.60;99.90
2489;DHT22;1255;48.716;9.124;2023-09-08T14:01:38;30.70;99.90
2489;DHT22;1255;48.716;9.124;2023-09-08T14:04:05;30.70;99.90
2489;DHT22;1255;48.716;9.124;2023-09-08T14:06:33;30.70;99.90
2489;DHT22;1255;48.716;9.124;2023-09-08T14:09:01;30.80;99.90
2489;DHT22;1255;48.716;9.124;2023-09-08T14:11:28;30.90;99.90
2489;DHT22;1255;48.716;9.124;2023-09-08T14:13:55;30.90;99.90
2489;DHT22;1255;48.716;9.124;2023-09-08T14:16:22;30.80;99.90
2489;DHT22;1255;48.716;9.124;2023-09-08T14:18:48;30.80;99.90
2489;DHT22;1255;48.716;9.124;2023-09-08T14:21:15;30.80;99.90
2489;DHT22;1255;48.716;9.124;2023-09-08T14:23:43;30.70;99.90
2489;DHT22;1255;48.716;9.124;2023-09-08T14:26:10;30.70;99.90
2489;DHT22;1255;48.716;9.124;2023-09-08T14:28:36;30.70;99.90
2489;DHT22;1255;48.716;9.124;2023-09-08T14:31:03;30.70;99.90
2489;DHT22;1255;48.716;9.124;2023-09-08T14:33:30;30.70;99.90
2489;DHT22;1255;48.716;9.124;2023-09-08T14:35:57;30.70;99.90
2489;DHT22;1255;48.716;9.124;2023-09-08T14:38:24;30.70;99.90
2489;DHT22;1255;48.716;9.124;2023-09-08T14:40:56;30.60;99.90
2489;DHT22;1255;48.716;9.124;2023-09-08T14:43:24;30.50;99.90
2489;DHT22;1255;48.716;9.124;2023-09-08T14:45:51;30.50;99.90
2489;DHT22;1255;48.716;9.124;2023-09-08T14:48:18;30.40;99.90
2489;DHT22;1255;48.716;9.124;2023-09-08T14:50:45;30.30;99.90
2489;DHT22;1255;48.716;9.124;2023-09-08T14:53:12;30.40;99.90
2489;DHT22;1255;48.716;9.124;2023-09-08T14:55:39;30.40;99.90
2489;DHT22;1255;48.716;9.124;2023-09-08T14:58:07;30.40;99.90
2489;DHT22;1255;48.716;9.124;2023-09-08T15:00:34;30.40;99.90
2489;DHT22;1255;48.716;9.124;2023-09-08T15:03:01;30.30;99.90
2489;DHT22;1255;48.716;9.124;2023-09-08T15:05:30;30.30;99.90
2489;DHT22;1255;48.716;9.124;2023-09-08T15:07:56;30.10;99.90
2489;DHT22;1255;48.716;9.124;2023-09-08T15:10:23;30.10;99.90
2489;DHT22;1255;48.716;9.124;2023-09-08T15:12:50;30.00;99.90
2489;DHT22;1255;48.716;9.124;2023-09-08T15:15:18;29.90;99.90
2489;DHT22;1255;48.716;9.124;2023-09-08T15:17:49;29.90;99.90
2489;DHT22;1255;48.716;9.124;2023-09-08T15:20:16;29.90;99.90
2489;DHT22;1255;48.716;9.124;2023-09-08T15:22:43;29.80;99.90
2489;DHT22;1255;48.716;9.124;2023-09-08T15:25:09;29.80;99.90
2489;DHT22;1255;48.716;9.124;2023-09-08T15:27:36;29.80;99.90
2489;DHT22;1255;48.716;9.124;2023-09-08T15:30:04;29.60;99.90
2489;DHT22;1255;48.716;9.124;2023-09-08T15:32:32;29.60;99.90
2489;DHT22;1255;48.716;9.124;2023-09-08T15:34:59;29.50;99.90
2489;DHT22;1255;48.716;9.124;2023-09-08T15:37:25;29.50;99.90
2489;DHT22;1255;48.716;9.124;2023-09-08T15:39:52;29.40;99.90
2489;DHT22;1255;48.716;9.124;2023-09-08T15:42:19;29.40;99.90
2489;DHT22;1255;48.716;9.124;2023-09-08T15:44:45;29.40;99.90
2489;DHT22;1255;48.716;9.124;2023-09-08T15:47:17;29.30;99.90
2489;DHT22;1255;48.716;9.124;2023-09-08T15:50:32;29.30;99.90
2489;DHT22;1255;48.716;9.124;2023-09-08T15:53:03;29.20;99.90
2489;DHT22;1255;48.716;9.124;2023-09-08T15:55:35;29.20;99.90
2489;DHT22;1255;48.716;9.124;2023-09-08T15:58:16;29.10;99.90
2489;DHT22;1255;48.716;9.124;2023-09-08T16:00:42;29.10;99.90
2489;DHT22;1255;48.716;9.124;2023-09-08T16:03:09;29.00;99.90
2489;DHT22;1255;48.716;9.124;2023-09-08T16:05:37;29.00;99.90
2489;DHT22;1255;48.716;9.124;2023-09-08T16:08:04;28.90;99.90
2489;DHT22;1255;48.716;9.124;2023-09-08T16:10:31;28.80;99.90
2489;DHT22;1255;48.716;9.124;2023-09-08T16:12:58;28.80;99.90
2489;DHT22;1255;48.716;9.124;2023-09-08T16:15:26;28.70;99.90
2489;DHT22;1255;48.716;9.124;2023-09-08T16:17:53;28.60;99.90
2489;DHT22;1255;48.716;9.124;2023-09-08T16:20:20;28.60;99.90
2489;DHT22;1255;48.716;9.124;2023-09-08T16:22:48;28.50;99.90
2489;DHT22;1255;48.716;9.124;2023-09-08T16:25:15;28.40;99.90
2489;DHT22;1255;48.716;9.124;2023-09-08T16:27:42;28.40;99.90
2489;DHT22;1255;48.716;9.124;2023-09-08T16:30:10;28.30;99.90
2489;DHT22;1255;48.716;9.124;2023-09-08T16:32:37;28.20;99.90
2489;DHT22;1255;48.716;9.124;2023-09-08T16:35:05;28.10;99.90
2489;DHT22;1255;48.716;9.124;2023-09-08T16:37:32;28.00;99.90
2489;DHT22;1255;48.716;9.124;2023-09-08T16:40:00;27.90;99.90
2489;DHT22;1255;48.716;9.124;2023-09-08T16:42:27;27.80;99.90
2489;DHT22;1255;48.716;9.124;2023-09-08T16:44:54;27.70;99.90
2489;DHT22;1255;48.716;9.124;2023-09-08T16:47:20;27.70;99.90
2489;DHT22;1255;48.716;9.124;2023-09-08T16:49:50;27.50;99.90
2489;DHT22;1255;48.716;9.124;2023-09-08T16:52:18;27.40;99.90
2489;DHT22;1255;48.716;9.124;2023-09-08T16:54:45;27.30;99.90
2489;DHT22;1255;48.716;9.124;2023-09-08T16:57:13;27.20;99.90
2489;DHT22;1255;48.716;9.124;2023-09-08T16:59:40;27.10;99.90
2489;DHT22;1255;48.716;9.124;2023-09-08T17:02:07;26.90;99.90
2489;DHT22;1255;48.716;9.124;2023-09-08T17:04:34;26.70;99.90
2489;DHT22;1255;48.716;9.124;2023-09-08T17:07:02;26.50;99.90
2489;DHT22;1255;48.716;9.124;2023-09-08T17:09:29;26.30;99.90
2489;DHT22;1255;48.716;9.124;2023-09-08T17:11:56;26.10;99.90
2489;DHT22;1255;48.716;9.124;2023-09-08T17:14:24;25.90;99.90
2489;DHT22;1255;48.716;9.124;2023-09-08T17:16:50;25.70;99.90
2489;DHT22;1255;48.716;9.124;2023-09-08T17:19:18;25.50;99.90
2489;DHT22;1255;48.716;9.124;2023-09-08T17:21:44;25.20;99.90
2489;DHT22;1255;48.716;9.124;2023-09-08T17:24:11;25.10;99.90
2489;DHT22;1255;48.716;9.124;2023-09-08T17:26:39;24.90;99.90
2489;DHT22;1255;48.716;9.124;2023-09-08T17:29:06;24.70;99.90
2489;DHT22;1255;48.716;9.124;2023-09-08T17:31:35;24.50;99.90
2489;DHT22;1255;48.716;9.124;2023-09-08T17:34:02;24.40;99.90
2489;DHT22;1255;48.716;9.124;2023-09-08T17:36:29;24.20;99.90
2489;DHT22;1255;48.716;9.124;2023-09-08T17:38:56;24.00;99.90
2489;DHT22;1255;48.716;9.124;2023-09-08T17:41:23;23.90;99.90
2489;DHT22;1255;48.716;9.124;2023-09-08T17:43:49;23.80;99.90
2489;DHT22;1255;48.716;9.124;2023-09-08T17:46:16;23.60;99.90
2489;DHT22;1255;48.716;9.124;2023-09-08T17:48:44;23.50;99.90
2489;DHT22;1255;48.716;9.124;2023-09-08T17:51:11;23.40;99.90
2489;DHT22;1255;48.716;9.124;2023-09-08T17:53:38;23.20;99.90
2489;DHT22;1255;48.716;9.124;2023-09-08T17:56:04;23.10;99.90
2489;DHT22;1255;48.716;9.124;2023-09-08T17:58:31;23.00;99.90
2489;DHT22;1255;48.716;9.124;2023-09-08T18:00:58;22.90;99.90
2489;DHT22;1255;48.716;9.124;2023-09-08T18:03:24;22.80;99.90
2489;DHT22;1255;48.716;9.124;2023-09-08T18:05:53;22.70;99.90
2489;DHT22;1255;48.716;9.124;2023-09-08T18:08:19;22.60;99.90
2489;DHT22;1255;48.716;9.124;2023-09-08T18:10:46;22.60;99.90
2489;DHT22;1255;48.716;9.124;2023-09-08T18:13:13;22.50;99.90
2489;DHT22;1255;48.716;9.124;2023-09-08T18:15:40;22.40;99.90
2489;DHT22;1255;48.716;9.124;2023-09-08T18:18:07;22.30;99.90
2489;DHT22;1255;48.716;9.124;2023-09-08T18:20:34;22.20;99.90
2489;DHT22;1255;48.716;9.124;2023-09-08T18:23:02;22.10;99.90
2489;DHT22;1255;48.716;9.124;2023-09-08T18:25:29;22.00;99.90
2489;DHT22;1255;48.716;9.124;2023-09-08T18:27:56;22.00;99.90
2489;DHT22;1255;48.716;9.124;2023-09-08T18:30:23;21.90;99.90
2489;DHT22;1255;48.716;9.124;2023-09-08T18:32:50;21.80;99.90
2489;DHT22;1255;48.716;9.124;2023-09-08T18:35:16;21.70;99.90
2489;DHT22;1255;48.716;9.124;2023-09-08T18:37:43;21.60;99.90
2489;DHT22;1255;48.716;9.124;2023-09-08T18:40:12;21.50;99.90
2489;DHT22;1255;48.716;9.124;2023-09-08T18:42:38;21.40;99.90
2489;DHT22;1255;48.716;9.124;2023-09-08T18:45:06;21.40;99.90
2489;DHT22;1255;48.716;9.124;2023-09-08T18:47:33;21.30;99.90
2489;DHT22;1255;48.716;9.124;2023-09-08T18:50:00;21.30;99.90
2489;DHT22;1255;48.716;9.124;2023-09-08T18:52:27;21.20;99.90
2489;DHT22;1255;48.716;9.124;2023-09-08T18:54:53;21.10;99.90
2489;DHT22;1255;48.716;9.124;2023-09-08T18:57:22;21.10;99.90
2489;DHT22;1255;48.716;9.124;2023-09-08T18:59:50;21.00;99.90
2489;DHT22;1255;48.716;9.124;2023-09-08T19:02:17;21.00;99.90
2489;DHT22;1255;48.716;9.124;2023-09-08T19:04:44;20.90;99.90
2489;DHT22;1255;48.716;9.124;2023-09-08T19:07:11;20.90;99.90
2489;DHT22;1255;48.716;9.124;2023-09-08T19:09:37;20.80;99.90
2489;DHT22;1255;48.716;9.124;2023-09-08T19:12:04;20.80;99.90
2489;DHT22;1255;48.716;9.124;2023-09-08T19:14:32;20.80;99.90
2489;DHT22;1255;48.716;9.124;2023-09-08T19:16:59;20.70;99.90
2489;DHT22;1255;48.716;9.124;2023-09-08T19:19:28;20.70;99.90
2489;DHT22;1255;48.716;9.124;2023-09-08T19:21:55;20.60;99.90
2489;DHT22;1255;48.716;9.124;2023-09-08T19:24:23;20.60;99.90
2489;DHT22;1255;48.716;9.124;2023-09-08T19:26:50;20.50;99.90
2489;DHT22;1255;48.716;9.124;2023-09-08T19:29:17;20.50;99.90
2489;DHT22;1255;48.716;9.124;2023-09-08T19:31:46;20.40;99.90
2489;DHT22;1255;48.716;9.124;2023-09-08T19:34:14;20.40;99.90
2489;DHT22;1255;48.716;9.124;2023-09-08T19:36:40;20.30;99.90